sensor_id;sensor_type;location;lat;lon;timestamp;P1;durP1;ratioP1;P2;durP2;ratioP2
537;SDS011;254;48.524;8.926;2023-02-10T00:00:03;30.5;;;23.5;;
537;SDS011;254;48.524;8.926;2023-02-10T00:01:03;32.7;;;23.6;;
537;SDS011;254;48.524;8.926;2023-02-10T00:02:02;35.7;;;26.2;;
537;SDS011;254;48.524;8.926;2023-02-10T00:03:02;31.3;;;24.1;;
537;SDS011;254;48.524;8.926;2023-02-10T00:04:03;32.1;;;22.7;;
537;SDS011;254;48.524;8.926;2023-02-10T00:05:01;32.9;;;23.1;;
537;SDS011;254;48.524;8.926;2023-02-10T00:06:04;34.6;;;22.5;;
537;SDS011;254;48.524;8.926;2023-02-10T00:07:01;32.5;;;23.1;;
537;SDS011;254;48.524;8.926;2023-02-10T00:08:02;30.3;;;22.9;;
537;SDS011;254;48.524;8.926;2023-02-10T00:09:03;28.9;;;22.4;;
537;SDS011;254;48.524;8.926;2023-02-10T00:10:02;30.0;;;22.5;;
537;SDS011;254;48.524;8.926;2023-02-10T00:11:03;33.6;;;23.2;;
537;SDS011;254;48.524;8.926;2023-02-10T00:12:02;31.6;;;22.9;;
537;SDS011;254;48.524;8.926;2023-02-10T00:13:02;30.2;;;22.4;;
537;SDS011;254;48.524;8.926;2023-02-10T00:14:02;32.6;;;23.0;;
537;SDS011;254;48.524;8.926;2023-02-10T00:15:03;29.7;;;22.4;;
537;SDS011;254;48.524;8.926;2023-02-10T00:16:03;26.9;;;20.7;;
537;SDS011;254;48.524;8.926;2023-02-10T00:17:02;27.0;;;21.1;;
537;SDS011;254;48.524;8.926;2023-02-10T00:18:02;26.3;;;20.5;;
537;SDS011;254;48.524;8.926;2023-02-10T00:19:02;27.3;;;20.6;;
537;SDS011;254;48.524;8.926;2023-02-10T00:20:02;27.0;;;20.3;;
537;SDS011;254;48.524;8.926;2023-02-10T00:21:06;29.5;;;22.0;;
537;SDS011;254;48.524;8.926;2023-02-10T00:22:02;28.0;;;20.7;;
537;SDS011;254;48.524;8.926;2023-02-10T00:23:03;28.9;;;20.6;;
537;SDS011;254;48.524;8.926;2023-02-10T00:24:02;28.3;;;21.1;;
537;SDS011;254;48.524;8.926;2023-02-10T00:25:04;28.4;;;21.4;;
537;SDS011;254;48.524;8.926;2023-02-10T00:26:04;25.5;;;19.2;;
537;SDS011;254;48.524;8.926;2023-02-10T00:27:03;27.8;;;20.0;;
537;SDS011;254;48.524;8.926;2023-02-10T00:28:02;27.3;;;20.4;;
537;SDS011;254;48.524;8.926;2023-02-10T00:29:02;25.3;;;20.9;;
537;SDS011;254;48.524;8.926;2023-02-10T00:30:04;25.3;;;20.0;;
537;SDS011;254;48.524;8.926;2023-02-10T00:31:04;27.6;;;20.5;;
537;SDS011;254;48.524;8.926;2023-02-10T00:32:02;29.1;;;21.4;;
537;SDS011;254;48.524;8.926;2023-02-10T00:33:02;26.4;;;20.0;;
537;SDS011;254;48.524;8.926;2023-02-10T00:34:02;25.8;;;20.3;;
537;SDS011;254;48.524;8.926;2023-02-10T00:35:03;28.2;;;20.5;;
537;SDS011;254;48.524;8.926;2023-02-10T00:36:03;30.2;;;21.9;;
537;SDS011;254;48.524;8.926;2023-02-10T00:37:02;28.3;;;21.0;;
537;SDS011;254;48.524;8.926;2023-02-10T00:38:02;26.3;;;19.9;;
537;SDS011;254;48.524;8.926;2023-02-10T00:39:02;27.1;;;18.8;;
537;SDS011;254;48.524;8.926;2023-02-10T00:40:02;24.8;;;19.3;;
537;SDS011;254;48.524;8.926;2023-02-10T00:41:03;27.3;;;20.3;;
537;SDS011;254;48.524;8.926;2023-02-10T00:42:02;31.2;;;20.4;;
537;SDS011;254;48.524;8.926;2023-02-10T00:43:02;29.6;;;21.2;;
537;SDS011;254;48.524;8.926;2023-02-10T00:44:03;30.5;;;20.9;;
537;SDS011;254;48.524;8.926;2023-02-10T00:45:02;29.0;;;21.1;;
537;SDS011;254;48.524;8.926;2023-02-10T00:46:02;29.3;;;21.0;;
537;SDS011;254;48.524;8.926;2023-02-10T00:47:02;27.3;;;20.2;;
537;SDS011;254;48.524;8.926;2023-02-10T00:48:02;31.3;;;22.5;;
537;SDS011;254;48.524;8.926;2023-02-10T00:49:03;29.6;;;23.3;;
537;SDS011;254;48.524;8.926;2023-02-10T00:50:02;32.1;;;23.1;;
537;SDS011;254;48.524;8.926;2023-02-10T00:51:03;30.1;;;21.6;;
537;SDS011;254;48.524;8.926;2023-02-10T00:52:01;37.0;;;22.6;;
537;SDS011;254;48.524;8.926;2023-02-10T00:53:02;31.2;;;23.3;;
537;SDS011;254;48.524;8.926;2023-02-10T00:54:03;29.3;;;22.2;;
537;SDS011;254;48.524;8.926;2023-02-10T00:55:02;31.3;;;21.3;;
537;SDS011;254;48.524;8.926;2023-02-10T00:56:02;30.1;;;21.8;;
537;SDS011;254;48.524;8.926;2023-02-10T00:57:02;30.4;;;21.7;;
537;SDS011;254;48.524;8.926;2023-02-10T00:58:02;34.7;;;22.9;;
537;SDS011;254;48.524;8.926;2023-02-10T00:59:02;29.2;;;21.3;;
537;SDS011;254;48.524;8.926;2023-02-10T01:00:03;28.6;;;22.0;;
537;SDS011;254;48.524;8.926;2023-02-10T01:01:02;31.1;;;22.6;;
537;SDS011;254;48.524;8.926;2023-02-10T01:02:02;30.8;;;22.3;;
537;SDS011;254;48.524;8.926;2023-02-10T01:03:02;30.9;;;21.8;;
537;SDS011;254;48.524;8.926;2023-02-10T01:04:03;29.8;;;22.6;;
537;SDS011;254;48.524;8.926;2023-02-10T01:05:02;35.7;;;23.4;;
537;SDS011;254;48.524;8.926;2023-02-10T01:06:02;36.3;;;25.3;;
537;SDS011;254;48.524;8.926;2023-02-10T01:07:03;38.3;;;27.2;;
537;SDS011;254;48.524;8.926;2023-02-10T01:08:01;37.1;;;27.2;;
537;SDS011;254;48.524;8.926;2023-02-10T01:09:02;36.2;;;25.6;;
537;SDS011;254;48.524;8.926;2023-02-10T01:10:03;35.5;;;26.7;;
537;SDS011;254;48.524;8.926;2023-02-10T01:11:03;34.9;;;26.4;;
537;SDS011;254;48.524;8.926;2023-02-10T01:12:02;39.9;;;26.8;;
537;SDS011;254;48.524;8.926;2023-02-10T01:13:03;35.3;;;26.0;;
537;SDS011;254;48.524;8.926;2023-02-10T01:14:02;35.5;;;26.0;;
537;SDS011;254;48.524;8.926;2023-02-10T01:15:02;37.9;;;27.1;;
537;SDS011;254;48.524;8.926;2023-02-10T01:16:03;38.3;;;25.5;;
537;SDS011;254;48.524;8.926;2023-02-10T01:17:02;35.7;;;26.1;;
537;SDS011;254;48.524;8.926;2023-02-10T01:18:02;37.9;;;25.3;;
537;SDS011;254;48.524;8.926;2023-02-10T01:19:02;35.0;;;25.0;;
537;SDS011;254;48.524;8.926;2023-02-10T01:20:02;34.5;;;26.0;;
537;SDS011;254;48.524;8.926;2023-02-10T01:21:05;37.6;;;25.7;;
537;SDS011;254;48.524;8.926;2023-02-10T01:22:02;35.4;;;26.1;;
537;SDS011;254;48.524;8.926;2023-02-10T01:23:03;34.8;;;25.6;;
537;SDS011;254;48.524;8.926;2023-02-10T01:24:02;38.1;;;27.5;;
537;SDS011;254;48.524;8.926;2023-02-10T01:25:02;37.1;;;27.5;;
537;SDS011;254;48.524;8.926;2023-02-10T01:26:03;46.4;;;36.1;;
537;SDS011;254;48.524;8.926;2023-02-10T01:27:02;39.8;;;29.3;;
537;SDS011;254;48.524;8.926;2023-02-10T01:28:02;37.9;;;28.5;;
537;SDS011;254;48.524;8.926;2023-02-10T01:29:02;38.8;;;26.7;;
537;SDS011;254;48.524;8.926;2023-02-10T01:30:04;33.8;;;25.3;;
537;SDS011;254;48.524;8.926;2023-02-10T01:31:04;34.3;;;24.8;;
537;SDS011;254;48.524;8.926;2023-02-10T01:32:02;40.1;;;25.4;;
537;SDS011;254;48.524;8.926;2023-02-10T01:33:02;34.6;;;25.7;;
537;SDS011;254;48.524;8.926;2023-02-10T01:34:02;36.2;;;25.6;;
537;SDS011;254;48.524;8.926;2023-02-10T01:35:02;36.8;;;27.8;;
537;SDS011;254;48.524;8.926;2023-02-10T01:36:02;35.8;;;26.7;;
537;SDS011;254;48.524;8.926;2023-02-10T01:37:02;39.7;;;26.3;;
537;SDS011;254;48.524;8.926;2023-02-10T01:38:02;37.5;;;27.7;;
537;SDS011;254;48.524;8.926;2023-02-10T01:39:03;41.3;;;28.4;;
537;SDS011;254;48.524;8.926;2023-02-10T01:40:02;38.8;;;27.4;;
537;SDS011;254;48.524;8.926;2023-02-10T01:41:03;39.6;;;27.0;;
537;SDS011;254;48.524;8.926;2023-02-10T01:42:02;36.9;;;27.1;;
537;SDS011;254;48.524;8.926;2023-02-10T01:43:09;36.8;;;26.9;;
537;SDS011;254;48.524;8.926;2023-02-10T01:44:03;38.3;;;26.6;;
537;SDS011;254;48.524;8.926;2023-02-10T01:45:11;35.4;;;26.9;;
537;SDS011;254;48.524;8.926;2023-02-10T01:46:02;35.8;;;26.7;;
537;SDS011;254;48.524;8.926;2023-02-10T01:47:02;43.3;;;30.5;;
537;SDS011;254;48.524;8.926;2023-02-10T01:48:02;53.3;;;37.1;;
537;SDS011;254;48.524;8.926;2023-02-10T01:49:04;46.7;;;31.4;;
537;SDS011;254;48.524;8.926;2023-02-10T01:50:02;38.7;;;29.2;;
537;SDS011;254;48.524;8.926;2023-02-10T01:51:03;37.4;;;27.0;;
537;SDS011;254;48.524;8.926;2023-02-10T01:52:04;40.4;;;28.2;;
537;SDS011;254;48.524;8.926;2023-02-10T01:53:02;39.5;;;28.2;;
537;SDS011;254;48.524;8.926;2023-02-10T01:54:03;35.4;;;26.7;;
537;SDS011;254;48.524;8.926;2023-02-10T01:55:04;36.3;;;27.0;;
537;SDS011;254;48.524;8.926;2023-02-10T01:56:02;39.1;;;28.4;;
537;SDS011;254;48.524;8.926;2023-02-10T01:57:01;39.6;;;29.1;;
537;SDS011;254;48.524;8.926;2023-02-10T01:58:02;41.6;;;30.0;;
537;SDS011;254;48.524;8.926;2023-02-10T01:59:02;39.4;;;28.8;;
537;SDS011;254;48.524;8.926;2023-02-10T02:00:03;34.9;;;25.7;;
537;SDS011;254;48.524;8.926;2023-02-10T02:01:02;37.1;;;25.3;;
537;SDS011;254;48.524;8.926;2023-02-10T02:02:02;36.0;;;24.7;;
537;SDS011;254;48.524;8.926;2023-02-10T02:03:02;33.2;;;24.7;;
537;SDS011;254;48.524;8.926;2023-02-10T02:04:02;33.0;;;24.3;;
537;SDS011;254;48.524;8.926;2023-02-10T02:05:04;30.6;;;23.5;;
537;SDS011;254;48.524;8.926;2023-02-10T02:06:02;33.3;;;23.0;;
537;SDS011;254;48.524;8.926;2023-02-10T02:07:02;29.5;;;23.1;;
537;SDS011;254;48.524;8.926;2023-02-10T02:08:03;32.5;;;22.9;;
537;SDS011;254;48.524;8.926;2023-02-10T02:09:02;32.3;;;23.3;;
537;SDS011;254;48.524;8.926;2023-02-10T02:10:03;33.1;;;23.0;;
537;SDS011;254;48.524;8.926;2023-02-10T02:11:12;30.0;;;22.3;;
537;SDS011;254;48.524;8.926;2023-02-10T02:12:03;32.5;;;22.3;;
537;SDS011;254;48.524;8.926;2023-02-10T02:13:02;31.9;;;23.4;;
537;SDS011;254;48.524;8.926;2023-02-10T02:14:06;31.4;;;22.9;;
537;SDS011;254;48.524;8.926;2023-02-10T02:15:03;34.7;;;23.1;;
537;SDS011;254;48.524;8.926;2023-02-10T02:16:04;32.5;;;22.7;;
537;SDS011;254;48.524;8.926;2023-02-10T02:17:06;31.1;;;23.0;;
537;SDS011;254;48.524;8.926;2023-02-10T02:18:06;32.3;;;23.4;;
537;SDS011;254;48.524;8.926;2023-02-10T02:19:04;30.7;;;22.9;;
537;SDS011;254;48.524;8.926;2023-02-10T02:20:37;32.1;;;23.5;;
537;SDS011;254;48.524;8.926;2023-02-10T02:21:08;31.9;;;22.9;;
537;SDS011;254;48.524;8.926;2023-02-10T02:22:09;31.4;;;22.4;;
537;SDS011;254;48.524;8.926;2023-02-10T02:23:06;32.5;;;23.2;;
537;SDS011;254;48.524;8.926;2023-02-10T02:24:21;32.6;;;23.2;;
537;SDS011;254;48.524;8.926;2023-02-10T02:25:05;32.0;;;23.3;;
537;SDS011;254;48.524;8.926;2023-02-10T02:26:08;33.5;;;23.6;;
537;SDS011;254;48.524;8.926;2023-02-10T02:27:13;34.9;;;24.3;;
537;SDS011;254;48.524;8.926;2023-02-10T02:28:07;32.0;;;23.0;;
537;SDS011;254;48.524;8.926;2023-02-10T02:29:09;34.2;;;23.0;;
537;SDS011;254;48.524;8.926;2023-02-10T02:30:23;35.4;;;23.0;;
537;SDS011;254;48.524;8.926;2023-02-10T02:31:08;31.3;;;23.2;;
537;SDS011;254;48.524;8.926;2023-02-10T02:32:04;32.2;;;22.7;;
537;SDS011;254;48.524;8.926;2023-02-10T02:33:03;30.9;;;22.2;;
537;SDS011;254;48.524;8.926;2023-02-10T02:34:03;30.9;;;23.1;;
537;SDS011;254;48.524;8.926;2023-02-10T02:35:03;30.0;;;22.7;;
537;SDS011;254;48.524;8.926;2023-02-10T02:36:04;32.3;;;23.5;;
537;SDS011;254;48.524;8.926;2023-02-10T02:37:04;33.7;;;24.3;;
537;SDS011;254;48.524;8.926;2023-02-10T02:38:03;29.8;;;23.2;;
537;SDS011;254;48.524;8.926;2023-02-10T02:39:03;34.7;;;24.7;;
537;SDS011;254;48.524;8.926;2023-02-10T02:40:02;36.7;;;25.5;;
537;SDS011;254;48.524;8.926;2023-02-10T02:41:03;31.2;;;23.9;;
537;SDS011;254;48.524;8.926;2023-02-10T02:42:11;35.5;;;25.4;;
537;SDS011;254;48.524;8.926;2023-02-10T02:43:02;34.2;;;24.8;;
537;SDS011;254;48.524;8.926;2023-02-10T02:44:02;40.0;;;25.1;;
537;SDS011;254;48.524;8.926;2023-02-10T02:45:03;38.7;;;25.5;;
537;SDS011;254;48.524;8.926;2023-02-10T02:46:03;35.4;;;25.7;;
537;SDS011;254;48.524;8.926;2023-02-10T02:47:03;34.1;;;24.3;;
537;SDS011;254;48.524;8.926;2023-02-10T02:48:04;31.8;;;24.2;;
537;SDS011;254;48.524;8.926;2023-02-10T02:49:03;32.1;;;24.4;;
537;SDS011;254;48.524;8.926;2023-02-10T02:50:06;34.1;;;24.4;;
537;SDS011;254;48.524;8.926;2023-02-10T02:51:03;34.1;;;24.3;;
537;SDS011;254;48.524;8.926;2023-02-10T02:52:03;33.7;;;25.1;;
537;SDS011;254;48.524;8.926;2023-02-10T02:53:08;30.9;;;23.1;;
537;SDS011;254;48.524;8.926;2023-02-10T02:54:08;34.2;;;23.0;;
537;SDS011;254;48.524;8.926;2023-02-10T02:55:03;33.6;;;23.2;;
537;SDS011;254;48.524;8.926;2023-02-10T02:56:04;32.6;;;23.9;;
537;SDS011;254;48.524;8.926;2023-02-10T02:57:02;32.5;;;24.0;;
537;SDS011;254;48.524;8.926;2023-02-10T02:58:03;33.2;;;22.7;;
537;SDS011;254;48.524;8.926;2023-02-10T02:59:03;32.5;;;23.3;;
537;SDS011;254;48.524;8.926;2023-02-10T03:00:03;31.7;;;23.3;;
537;SDS011;254;48.524;8.926;2023-02-10T03:01:02;30.7;;;22.9;;
537;SDS011;254;48.524;8.926;2023-02-10T03:02:03;29.2;;;22.5;;
537;SDS011;254;48.524;8.926;2023-02-10T03:03:02;30.6;;;21.9;;
537;SDS011;254;48.524;8.926;2023-02-10T03:04:03;30.1;;;22.7;;
537;SDS011;254;48.524;8.926;2023-02-10T03:05:02;31.9;;;22.1;;
537;SDS011;254;48.524;8.926;2023-02-10T03:06:03;28.9;;;22.1;;
537;SDS011;254;48.524;8.926;2023-02-10T03:07:02;29.7;;;21.6;;
537;SDS011;254;48.524;8.926;2023-02-10T03:08:02;29.5;;;21.2;;
537;SDS011;254;48.524;8.926;2023-02-10T03:09:02;31.6;;;22.7;;
537;SDS011;254;48.524;8.926;2023-02-10T03:10:03;29.6;;;22.3;;
537;SDS011;254;48.524;8.926;2023-02-10T03:11:02;28.9;;;22.1;;
537;SDS011;254;48.524;8.926;2023-02-10T03:12:03;33.0;;;22.9;;
537;SDS011;254;48.524;8.926;2023-02-10T03:13:02;28.9;;;21.5;;
537;SDS011;254;48.524;8.926;2023-02-10T03:14:02;32.5;;;22.4;;
537;SDS011;254;48.524;8.926;2023-02-10T03:15:02;29.7;;;22.1;;
537;SDS011;254;48.524;8.926;2023-02-10T03:16:02;30.0;;;21.3;;
537;SDS011;254;48.524;8.926;2023-02-10T03:17:02;26.5;;;20.9;;
537;SDS011;254;48.524;8.926;2023-02-10T03:18:02;27.4;;;21.0;;
537;SDS011;254;48.524;8.926;2023-02-10T03:19:03;29.8;;;21.9;;
537;SDS011;254;48.524;8.926;2023-02-10T03:20:02;28.3;;;22.1;;
537;SDS011;254;48.524;8.926;2023-02-10T03:21:02;28.2;;;21.4;;
537;SDS011;254;48.524;8.926;2023-02-10T03:22:03;26.9;;;20.7;;
537;SDS011;254;48.524;8.926;2023-02-10T03:23:01;31.5;;;21.4;;
537;SDS011;254;48.524;8.926;2023-02-10T03:24:02;28.9;;;22.1;;
537;SDS011;254;48.524;8.926;2023-02-10T03:25:03;27.8;;;21.2;;
537;SDS011;254;48.524;8.926;2023-02-10T03:26:02;28.1;;;21.8;;
537;SDS011;254;48.524;8.926;2023-02-10T03:27:02;32.6;;;23.3;;
537;SDS011;254;48.524;8.926;2023-02-10T03:28:02;28.2;;;22.0;;
537;SDS011;254;48.524;8.926;2023-02-10T03:29:02;27.6;;;22.5;;
537;SDS011;254;48.524;8.926;2023-02-10T03:30:03;29.5;;;21.7;;
537;SDS011;254;48.524;8.926;2023-02-10T03:31:02;31.8;;;22.7;;
537;SDS011;254;48.524;8.926;2023-02-10T03:32:02;30.8;;;22.7;;
537;SDS011;254;48.524;8.926;2023-02-10T03:33:02;27.8;;;21.9;;
537;SDS011;254;48.524;8.926;2023-02-10T03:34:03;30.9;;;22.9;;
537;SDS011;254;48.524;8.926;2023-02-10T03:35:02;31.5;;;23.1;;
537;SDS011;254;48.524;8.926;2023-02-10T03:36:03;30.3;;;23.1;;
537;SDS011;254;48.524;8.926;2023-02-10T03:37:02;28.9;;;22.9;;
537;SDS011;254;48.524;8.926;2023-02-10T03:38:02;28.3;;;22.0;;
537;SDS011;254;48.524;8.926;2023-02-10T03:39:02;31.3;;;22.4;;
537;SDS011;254;48.524;8.926;2023-02-10T03:40:02;30.9;;;22.4;;
537;SDS011;254;48.524;8.926;2023-02-10T03:41:03;27.1;;;21.0;;
537;SDS011;254;48.524;8.926;2023-02-10T03:42:03;32.1;;;22.6;;
537;SDS011;254;48.524;8.926;2023-02-10T03:43:01;30.9;;;22.2;;
537;SDS011;254;48.524;8.926;2023-02-10T03:44:02;30.4;;;21.8;;
537;SDS011;254;48.524;8.926;2023-02-10T03:45:03;27.1;;;21.1;;
537;SDS011;254;48.524;8.926;2023-02-10T03:46:03;26.9;;;21.2;;
537;SDS011;254;48.524;8.926;2023-02-10T03:47:02;32.2;;;22.5;;
537;SDS011;254;48.524;8.926;2023-02-10T03:48:02;32.5;;;23.2;;
537;SDS011;254;48.524;8.926;2023-02-10T03:49:02;30.0;;;23.1;;
537;SDS011;254;48.524;8.926;2023-02-10T03:50:02;34.2;;;25.5;;
537;SDS011;254;48.524;8.926;2023-02-10T03:51:03;35.2;;;26.4;;
537;SDS011;254;48.524;8.926;2023-02-10T03:52:02;45.5;;;31.1;;
537;SDS011;254;48.524;8.926;2023-02-10T03:53:03;48.3;;;32.2;;
537;SDS011;254;48.524;8.926;2023-02-10T03:54:02;34.1;;;24.8;;
537;SDS011;254;48.524;8.926;2023-02-10T03:55:02;31.0;;;22.5;;
537;SDS011;254;48.524;8.926;2023-02-10T03:56:01;26.8;;;21.5;;
537;SDS011;254;48.524;8.926;2023-02-10T03:57:02;30.8;;;22.2;;
537;SDS011;254;48.524;8.926;2023-02-10T03:58:03;29.6;;;22.1;;
537;SDS011;254;48.524;8.926;2023-02-10T03:59:03;29.2;;;20.9;;
537;SDS011;254;48.524;8.926;2023-02-10T04:00:02;26.6;;;20.7;;
537;SDS011;254;48.524;8.926;2023-02-10T04:01:07;29.4;;;21.7;;
537;SDS011;254;48.524;8.926;2023-02-10T04:02:02;28.5;;;21.3;;
537;SDS011;254;48.524;8.926;2023-02-10T04:03:02;26.5;;;21.0;;
537;SDS011;254;48.524;8.926;2023-02-10T04:04:03;29.0;;;21.6;;
537;SDS011;254;48.524;8.926;2023-02-10T04:05:04;26.6;;;21.0;;
537;SDS011;254;48.524;8.926;2023-02-10T04:06:03;26.1;;;20.1;;
537;SDS011;254;48.524;8.926;2023-02-10T04:07:02;26.5;;;20.5;;
537;SDS011;254;48.524;8.926;2023-02-10T04:08:02;26.3;;;20.4;;
537;SDS011;254;48.524;8.926;2023-02-10T04:09:02;29.5;;;21.1;;
537;SDS011;254;48.524;8.926;2023-02-10T04:10:03;27.1;;;20.6;;
537;SDS011;254;48.524;8.926;2023-02-10T04:11:03;27.2;;;20.5;;
537;SDS011;254;48.524;8.926;2023-02-10T04:12:01;26.5;;;20.9;;
537;SDS011;254;48.524;8.926;2023-02-10T04:13:02;28.5;;;20.6;;
537;SDS011;254;48.524;8.926;2023-02-10T04:14:02;26.9;;;20.2;;
537;SDS011;254;48.524;8.926;2023-02-10T04:15:02;28.2;;;21.3;;
537;SDS011;254;48.524;8.926;2023-02-10T04:16:02;28.2;;;20.6;;
537;SDS011;254;48.524;8.926;2023-02-10T04:17:02;29.3;;;21.5;;
537;SDS011;254;48.524;8.926;2023-02-10T04:18:03;27.4;;;20.8;;
537;SDS011;254;48.524;8.926;2023-02-10T04:19:02;33.0;;;21.5;;
537;SDS011;254;48.524;8.926;2023-02-10T04:20:02;27.0;;;21.0;;
537;SDS011;254;48.524;8.926;2023-02-10T04:21:03;27.1;;;21.0;;
537;SDS011;254;48.524;8.926;2023-02-10T04:22:01;27.9;;;21.1;;
537;SDS011;254;48.524;8.926;2023-02-10T04:23:02;30.3;;;20.7;;
537;SDS011;254;48.524;8.926;2023-02-10T04:24:03;29.1;;;20.9;;
537;SDS011;254;48.524;8.926;2023-02-10T04:25:02;29.9;;;22.0;;
537;SDS011;254;48.524;8.926;2023-02-10T04:26:03;28.5;;;21.8;;
537;SDS011;254;48.524;8.926;2023-02-10T04:27:01;27.4;;;21.1;;
537;SDS011;254;48.524;8.926;2023-02-10T04:28:02;26.8;;;20.7;;
537;SDS011;254;48.524;8.926;2023-02-10T04:29:03;30.9;;;21.3;;
537;SDS011;254;48.524;8.926;2023-02-10T04:30:01;29.2;;;21.2;;
537;SDS011;254;48.524;8.926;2023-02-10T04:31:02;28.7;;;20.6;;
537;SDS011;254;48.524;8.926;2023-02-10T04:32:01;27.8;;;20.9;;
537;SDS011;254;48.524;8.926;2023-02-10T04:33:02;29.9;;;21.7;;
537;SDS011;254;48.524;8.926;2023-02-10T04:34:03;27.9;;;20.8;;
537;SDS011;254;48.524;8.926;2023-02-10T04:35:02;27.3;;;20.9;;
537;SDS011;254;48.524;8.926;2023-02-10T04:36:02;27.5;;;20.7;;
537;SDS011;254;48.524;8.926;2023-02-10T04:37:02;27.5;;;19.9;;
537;SDS011;254;48.524;8.926;2023-02-10T04:38:02;27.4;;;20.5;;
537;SDS011;254;48.524;8.926;2023-02-10T04:39:02;31.2;;;21.0;;
537;SDS011;254;48.524;8.926;2023-02-10T04:40:03;29.9;;;21.4;;
537;SDS011;254;48.524;8.926;2023-02-10T04:41:02;29.0;;;20.8;;
537;SDS011;254;48.524;8.926;2023-02-10T04:42:04;27.6;;;20.6;;
537;SDS011;254;48.524;8.926;2023-02-10T04:43:02;27.5;;;20.8;;
537;SDS011;254;48.524;8.926;2023-02-10T04:44:02;27.7;;;21.4;;
537;SDS011;254;48.524;8.926;2023-02-10T04:45:03;28.2;;;21.1;;
537;SDS011;254;48.524;8.926;2023-02-10T04:46:03;27.9;;;20.4;;
537;SDS011;254;48.524;8.926;2023-02-10T04:47:02;29.7;;;21.3;;
537;SDS011;254;48.524;8.926;2023-02-10T04:48:02;28.3;;;22.0;;
537;SDS011;254;48.524;8.926;2023-02-10T04:49:02;30.8;;;22.3;;
537;SDS011;254;48.524;8.926;2023-02-10T04:50:03;30.3;;;21.6;;
537;SDS011;254;48.524;8.926;2023-02-10T04:51:05;29.8;;;21.2;;
537;SDS011;254;48.524;8.926;2023-02-10T04:52:02;27.9;;;21.3;;
537;SDS011;254;48.524;8.926;2023-02-10T04:53:02;30.7;;;22.1;;
537;SDS011;254;48.524;8.926;2023-02-10T04:54:03;30.7;;;23.0;;
537;SDS011;254;48.524;8.926;2023-02-10T04:55:02;30.2;;;21.8;;
537;SDS011;254;48.524;8.926;2023-02-10T04:56:02;28.0;;;21.6;;
537;SDS011;254;48.524;8.926;2023-02-10T04:57:02;29.4;;;22.4;;
537;SDS011;254;48.524;8.926;2023-02-10T04:58:02;30.2;;;24.0;;
537;SDS011;254;48.524;8.926;2023-02-10T04:59:02;35.3;;;27.2;;
537;SDS011;254;48.524;8.926;2023-02-10T05:00:03;37.3;;;25.6;;
537;SDS011;254;48.524;8.926;2023-02-10T05:01:02;40.0;;;28.4;;
537;SDS011;254;48.524;8.926;2023-02-10T05:02:02;39.0;;;28.6;;
537;SDS011;254;48.524;8.926;2023-02-10T05:03:02;40.6;;;29.2;;
537;SDS011;254;48.524;8.926;2023-02-10T05:04:02;36.1;;;26.3;;
537;SDS011;254;48.524;8.926;2023-02-10T05:05:02;35.5;;;25.7;;
537;SDS011;254;48.524;8.926;2023-02-10T05:06:05;33.1;;;24.3;;
537;SDS011;254;48.524;8.926;2023-02-10T05:07:02;34.0;;;24.0;;
537;SDS011;254;48.524;8.926;2023-02-10T05:08:02;33.1;;;24.4;;
537;SDS011;254;48.524;8.926;2023-02-10T05:09:02;32.8;;;23.3;;
537;SDS011;254;48.524;8.926;2023-02-10T05:10:03;33.3;;;23.3;;
537;SDS011;254;48.524;8.926;2023-02-10T05:11:02;28.8;;;22.5;;
537;SDS011;254;48.524;8.926;2023-02-10T05:12:02;35.7;;;25.2;;
537;SDS011;254;48.524;8.926;2023-02-10T05:13:02;33.9;;;24.5;;
537;SDS011;254;48.524;8.926;2023-02-10T05:14:02;33.3;;;23.6;;
537;SDS011;254;48.524;8.926;2023-02-10T05:15:04;33.1;;;23.9;;
537;SDS011;254;48.524;8.926;2023-02-10T05:16:03;31.6;;;22.6;;
537;SDS011;254;48.524;8.926;2023-02-10T05:17:03;31.6;;;23.7;;
537;SDS011;254;48.524;8.926;2023-02-10T05:18:02;31.7;;;23.3;;
537;SDS011;254;48.524;8.926;2023-02-10T05:19:02;31.6;;;23.6;;
537;SDS011;254;48.524;8.926;2023-02-10T05:20:03;31.6;;;23.6;;
537;SDS011;254;48.524;8.926;2023-02-10T05:21:02;34.7;;;24.8;;
537;SDS011;254;48.524;8.926;2023-02-10T05:22:02;30.7;;;23.9;;
537;SDS011;254;48.524;8.926;2023-02-10T05:23:02;32.6;;;23.6;;
537;SDS011;254;48.524;8.926;2023-02-10T05:24:02;32.6;;;23.4;;
537;SDS011;254;48.524;8.926;2023-02-10T05:25:02;33.4;;;23.8;;
537;SDS011;254;48.524;8.926;2023-02-10T05:26:03;35.5;;;24.5;;
537;SDS011;254;48.524;8.926;2023-02-10T05:27:02;36.4;;;23.9;;
537;SDS011;254;48.524;8.926;2023-02-10T05:28:02;32.3;;;23.6;;
537;SDS011;254;48.524;8.926;2023-02-10T05:29:02;31.9;;;23.9;;
537;SDS011;254;48.524;8.926;2023-02-10T05:30:03;31.2;;;23.8;;
537;SDS011;254;48.524;8.926;2023-02-10T05:31:03;31.5;;;22.9;;
537;SDS011;254;48.524;8.926;2023-02-10T05:32:02;31.1;;;23.5;;
537;SDS011;254;48.524;8.926;2023-02-10T05:33:02;31.6;;;23.8;;
537;SDS011;254;48.524;8.926;2023-02-10T05:34:01;31.1;;;23.9;;
537;SDS011;254;48.524;8.926;2023-02-10T05:35:02;31.5;;;23.2;;
537;SDS011;254;48.524;8.926;2023-02-10T05:36:02;31.9;;;23.9;;
537;SDS011;254;48.524;8.926;2023-02-10T05:37:02;30.2;;;23.2;;
537;SDS011;254;48.524;8.926;2023-02-10T05:38:02;30.2;;;22.4;;
537;SDS011;254;48.524;8.926;2023-02-10T05:39:02;30.5;;;21.9;;
537;SDS011;254;48.524;8.926;2023-02-10T05:40:03;32.7;;;23.1;;
537;SDS011;254;48.524;8.926;2023-02-10T05:41:02;29.5;;;22.0;;
537;SDS011;254;48.524;8.926;2023-02-10T05:42:02;28.7;;;21.9;;
537;SDS011;254;48.524;8.926;2023-02-10T05:43:02;33.8;;;22.1;;
537;SDS011;254;48.524;8.926;2023-02-10T05:44:03;31.0;;;21.9;;
537;SDS011;254;48.524;8.926;2023-02-10T05:45:02;31.1;;;22.5;;
537;SDS011;254;48.524;8.926;2023-02-10T05:46:02;31.2;;;23.6;;
537;SDS011;254;48.524;8.926;2023-02-10T05:47:02;33.7;;;23.2;;
537;SDS011;254;48.524;8.926;2023-02-10T05:48:02;29.3;;;23.4;;
537;SDS011;254;48.524;8.926;2023-02-10T05:49:03;32.9;;;22.9;;
537;SDS011;254;48.524;8.926;2023-02-10T05:50:02;30.1;;;22.5;;
537;SDS011;254;48.524;8.926;2023-02-10T05:51:02;30.4;;;22.7;;
537;SDS011;254;48.524;8.926;2023-02-10T05:52:02;32.5;;;23.6;;
537;SDS011;254;48.524;8.926;2023-02-10T05:53:02;34.2;;;23.0;;
537;SDS011;254;48.524;8.926;2023-02-10T05:54:03;31.4;;;22.2;;
537;SDS011;254;48.524;8.926;2023-02-10T05:55:02;31.8;;;23.0;;
537;SDS011;254;48.524;8.926;2023-02-10T05:56:02;32.0;;;23.5;;
537;SDS011;254;48.524;8.926;2023-02-10T05:57:02;32.2;;;22.2;;
537;SDS011;254;48.524;8.926;2023-02-10T05:58:02;33.9;;;23.4;;
537;SDS011;254;48.524;8.926;2023-02-10T05:59:02;32.6;;;23.2;;
537;SDS011;254;48.524;8.926;2023-02-10T06:00:02;32.7;;;23.9;;
537;SDS011;254;48.524;8.926;2023-02-10T06:01:05;32.8;;;22.7;;
537;SDS011;254;48.524;8.926;2023-02-10T06:02:03;33.2;;;23.6;;
537;SDS011;254;48.524;8.926;2023-02-10T06:03:02;34.0;;;24.7;;
537;SDS011;254;48.524;8.926;2023-02-10T06:04:02;31.4;;;22.6;;
537;SDS011;254;48.524;8.926;2023-02-10T06:05:03;33.3;;;23.9;;
537;SDS011;254;48.524;8.926;2023-02-10T06:06:03;32.8;;;23.6;;
537;SDS011;254;48.524;8.926;2023-02-10T06:07:02;30.6;;;22.2;;
537;SDS011;254;48.524;8.926;2023-02-10T06:08:02;33.3;;;22.8;;
537;SDS011;254;48.524;8.926;2023-02-10T06:09:02;29.8;;;22.5;;
537;SDS011;254;48.524;8.926;2023-02-10T06:10:03;31.3;;;22.7;;
537;SDS011;254;48.524;8.926;2023-02-10T06:11:02;31.5;;;23.1;;
537;SDS011;254;48.524;8.926;2023-02-10T06:12:02;34.1;;;23.1;;
537;SDS011;254;48.524;8.926;2023-02-10T06:13:02;32.4;;;22.8;;
537;SDS011;254;48.524;8.926;2023-02-10T06:14:02;35.7;;;23.0;;
537;SDS011;254;48.524;8.926;2023-02-10T06:15:03;29.2;;;22.9;;
537;SDS011;254;48.524;8.926;2023-02-10T06:16:03;34.5;;;24.4;;
537;SDS011;254;48.524;8.926;2023-02-10T06:17:02;36.7;;;25.0;;
537;SDS011;254;48.524;8.926;2023-02-10T06:18:02;35.4;;;25.4;;
537;SDS011;254;48.524;8.926;2023-02-10T06:19:02;34.3;;;24.6;;
537;SDS011;254;48.524;8.926;2023-02-10T06:20:03;31.9;;;24.8;;
537;SDS011;254;48.524;8.926;2023-02-10T06:21:02;30.4;;;23.2;;
537;SDS011;254;48.524;8.926;2023-02-10T06:22:02;32.4;;;24.7;;
537;SDS011;254;48.524;8.926;2023-02-10T06:23:02;29.4;;;22.3;;
537;SDS011;254;48.524;8.926;2023-02-10T06:24:02;29.2;;;22.3;;